createdAt,value
2023-03-06T00:03:24.481Z,4.85
2023-03-06T00:05:28.691Z,4.75
2023-03-06T00:07:32.237Z,4.60
2023-03-06T00:09:35.984Z,5.72
2023-03-06T00:11:39.552Z,4.30
2023-03-06T00:13:43.281Z,4.85
2023-03-06T00:15:48.932Z,4.22
2023-03-06T00:17:53.154Z,5.38
2023-03-06T00:19:57.033Z,4.57
2023-03-06T00:22:00.525Z,5.05
2023-03-06T00:24:04.163Z,6.00
2023-03-06T00:26:09.079Z,4.65
2023-03-06T00:28:15.952Z,4.57
2023-03-06T00:30:22.404Z,4.97
2023-03-06T00:32:28.917Z,4.78
2023-03-06T00:34:32.618Z,4.47
2023-03-06T00:36:36.110Z,4.40
2023-03-06T00:38:39.632Z,4.25
2023-03-06T00:40:43.126Z,4.90
2023-03-06T00:42:47.087Z,4.78
2023-03-06T00:44:50.637Z,5.05
2023-03-06T00:46:54.265Z,5.15
2023-03-06T00:48:59.314Z,5.47
2023-03-06T00:51:03.137Z,5.53
2023-03-06T00:53:06.655Z,5.32
2023-03-06T00:55:11.722Z,5.25
2023-03-06T00:59:18.704Z,5.50
2023-03-06T01:01:22.356Z,5.60
2023-03-06T01:03:27.616Z,5.68
2023-03-06T01:05:35.758Z,5.70
2023-03-06T01:07:39.209Z,5.78
2023-03-06T01:09:43.009Z,6.22
2023-03-06T01:11:46.548Z,5.70
2023-03-06T01:13:50.314Z,6.05
2023-03-06T01:15:54.352Z,5.22
2023-03-06T01:17:58.313Z,6.60
2023-03-06T01:20:03.424Z,7.35
2023-03-06T01:24:11.704Z,5.35
2023-03-06T01:26:15.707Z,5.60
2023-03-06T01:28:19.195Z,5.55
2023-03-06T01:30:23.054Z,6.30
2023-03-06T01:32:26.952Z,5.78
2023-03-06T01:34:30.591Z,5.88
2023-03-06T01:36:34.449Z,6.80
2023-03-06T01:38:41.002Z,6.10
2023-03-06T01:42:50.631Z,6.40
2023-03-06T01:45:02.649Z,6.30
2023-03-06T01:47:06.492Z,6.78
2023-03-06T01:49:16.681Z,5.80
2023-03-06T01:51:20.602Z,5.68
2023-03-06T01:53:24.268Z,5.68
2023-03-06T01:55:35.060Z,5.65
2023-03-06T01:57:42.467Z,4.80
2023-03-06T01:59:49.121Z,4.85
2023-03-06T02:01:53.120Z,5.70
2023-03-06T02:03:57.460Z,4.80
2023-03-06T02:06:01.156Z,4.50
2023-03-06T02:08:05.443Z,4.78
2023-03-06T02:10:10.537Z,5.10
2023-03-06T02:12:19.402Z,5.22
2023-03-06T02:14:23.490Z,6.32
2023-03-06T02:16:30.581Z,5.32
2023-03-06T02:18:35.443Z,5.65
2023-03-06T02:20:44.963Z,6.03
2023-03-06T02:22:55.517Z,5.32
2023-03-06T02:25:05.632Z,5.85
2023-03-06T02:27:14.531Z,5.43
2023-03-06T02:29:25.628Z,5.35
2023-03-06T02:31:32.191Z,5.85
2023-03-06T02:33:36.032Z,6.15
2023-03-06T02:35:42.009Z,5.50
2023-03-06T02:37:47.029Z,4.80
2023-03-06T02:40:02.032Z,5.95
2023-03-06T02:42:06.040Z,5.68
2023-03-06T02:44:10.828Z,5.13
2023-03-06T02:46:14.146Z,6.05
2023-03-06T02:48:19.096Z,5.03
2023-03-06T02:52:25.685Z,5.15
2023-03-06T02:54:29.028Z,6.50
2023-03-06T02:56:32.317Z,5.47
2023-03-06T02:58:35.632Z,5.78
2023-03-06T03:00:40.657Z,5.43
2023-03-06T03:02:46.412Z,6.18
2023-03-06T03:04:49.679Z,5.68
2023-03-06T03:06:54.095Z,6.00
2023-03-06T03:08:57.465Z,5.03
2023-03-06T03:11:02.014Z,5.93
2023-03-06T03:13:11.867Z,5.80
2023-03-06T03:15:15.745Z,5.47
2023-03-06T03:17:20.915Z,5.70
2023-03-06T03:19:24.178Z,5.35
2023-03-06T03:21:27.760Z,5.68
2023-03-06T03:23:31.990Z,5.35
2023-03-06T03:25:35.279Z,5.28
2023-03-06T03:27:38.602Z,5.70
2023-03-06T03:29:42.812Z,5.88
2023-03-06T03:31:46.045Z,6.25
2023-03-06T03:33:50.796Z,6.22
2023-03-06T03:35:58.376Z,7.50
2023-03-06T03:38:02.783Z,6.90
2023-03-06T03:40:08.053Z,8.00
2023-03-06T03:42:11.337Z,8.23
2023-03-06T03:44:15.054Z,9.20
2023-03-06T03:46:19.087Z,8.27
2023-03-06T03:48:22.575Z,7.82
2023-03-06T03:50:27.873Z,8.18
2023-03-06T03:54:34.496Z,8.35
2023-03-06T03:56:37.796Z,7.35
2023-03-06T03:58:46.251Z,7.28
2023-03-06T04:00:49.643Z,6.78
2023-03-06T04:02:52.990Z,6.40
2023-03-06T04:05:05.675Z,6.40
2023-03-06T04:07:11.119Z,6.65
2023-03-06T04:09:15.628Z,6.20
2023-03-06T04:11:19.511Z,5.85
2023-03-06T04:13:23.544Z,7.03
2023-03-06T04:15:27.608Z,6.18
2023-03-06T04:17:34.137Z,6.30
2023-03-06T04:19:38.481Z,5.57
2023-03-06T04:21:41.861Z,5.30
2023-03-06T04:23:47.039Z,4.63
2023-03-06T04:25:51.354Z,4.20
2023-03-06T04:27:55.261Z,4.65
2023-03-06T04:29:58.815Z,4.55
2023-03-06T04:32:02.619Z,4.10
2023-03-06T04:34:06.330Z,4.20
2023-03-06T04:36:18.117Z,3.72
2023-03-06T04:38:21.620Z,3.35
2023-03-06T04:40:29.495Z,3.42
2023-03-06T04:42:32.997Z,3.47
2023-03-06T04:44:36.755Z,3.22
2023-03-06T04:46:40.049Z,3.40
2023-03-06T04:48:43.595Z,2.97
2023-03-06T04:50:47.133Z,3.72
2023-03-06T04:52:50.774Z,3.53
2023-03-06T04:54:54.287Z,3.53
2023-03-06T04:56:58.981Z,3.22
2023-03-06T04:59:03.320Z,3.08
2023-03-06T05:01:07.252Z,3.15
2023-03-06T05:03:12.513Z,3.22
2023-03-06T05:05:16.424Z,3.30
2023-03-06T05:07:19.885Z,3.33
2023-03-06T05:09:23.202Z,3.38
2023-03-06T05:11:26.739Z,3.00
2023-03-06T05:13:31.826Z,3.35
2023-03-06T05:15:35.132Z,3.35
2023-03-06T05:17:38.827Z,2.83
2023-03-06T05:19:42.140Z,2.53
2023-03-06T05:21:45.599Z,3.22
2023-03-06T05:23:49.250Z,3.15
2023-03-06T05:25:52.892Z,2.58
2023-03-06T05:27:56.246Z,2.50
2023-03-06T05:30:00.976Z,2.72
2023-03-06T05:32:04.326Z,2.15
2023-03-06T05:34:07.858Z,2.63
2023-03-06T05:36:11.453Z,2.45
2023-03-06T05:38:14.815Z,3.30
2023-03-06T05:40:19.298Z,2.50
2023-03-06T05:42:22.603Z,2.17
2023-03-06T05:44:26.024Z,2.15
2023-03-06T05:46:31.605Z,2.10
2023-03-06T05:48:35.437Z,2.53
2023-03-06T05:50:38.971Z,1.55
2023-03-06T05:52:42.460Z,1.90
2023-03-06T05:54:45.816Z,1.77
2023-03-06T05:56:49.517Z,2.25
2023-03-06T05:58:53.179Z,2.85
2023-03-06T06:00:56.481Z,2.22
2023-03-06T06:03:03.304Z,1.65
2023-03-06T06:05:07.260Z,2.10
2023-03-06T06:07:15.642Z,2.00
2023-03-06T06:09:19.228Z,2.22
2023-03-06T06:11:22.582Z,2.40
2023-03-06T06:13:25.877Z,2.25
2023-03-06T06:15:29.144Z,2.33
2023-03-06T06:17:32.986Z,2.25
2023-03-06T06:19:37.578Z,2.47
2023-03-06T06:21:40.854Z,3.08
2023-03-06T06:23:44.606Z,2.42
2023-03-06T06:25:47.940Z,3.08
2023-03-06T06:27:51.611Z,2.30
2023-03-06T06:29:55.046Z,3.00
2023-03-06T06:31:59.081Z,3.53
2023-03-06T06:34:03.704Z,3.20
2023-03-06T06:36:16.930Z,3.45
2023-03-06T06:38:20.709Z,3.17
2023-03-06T06:40:24.529Z,3.70
2023-03-06T06:42:36.291Z,3.40
2023-03-06T06:44:41.936Z,2.90
2023-03-06T06:47:21.320Z,2.83
2023-03-06T06:49:12.268Z,2.72
2023-03-06T06:51:18.383Z,2.65
2023-03-06T06:53:22.174Z,2.85
2023-03-06T06:55:26.078Z,2.45
2023-03-06T06:57:30.770Z,2.95
2023-03-06T06:59:34.282Z,3.13
2023-03-06T07:01:37.915Z,3.53
2023-03-06T07:03:43.379Z,3.17
2023-03-06T07:05:46.978Z,3.53
2023-03-06T07:07:54.143Z,3.53
2023-03-06T07:09:57.960Z,3.42
2023-03-06T07:12:01.722Z,3.35
2023-03-06T07:14:05.509Z,2.83
2023-03-06T07:16:09.726Z,3.30
2023-03-06T07:18:13.548Z,3.03
2023-03-06T07:20:17.325Z,2.42
2023-03-06T07:22:20.987Z,1.90
2023-03-06T07:24:25.949Z,1.77
2023-03-06T07:26:32.772Z,1.73
2023-03-06T07:28:51.604Z,1.52
2023-03-06T07:30:56.321Z,1.70
2023-03-06T07:33:01.157Z,1.38
2023-03-06T07:35:19.398Z,1.52
2023-03-06T07:37:23.902Z,1.55
2023-03-06T07:39:30.270Z,1.50
2023-03-06T07:41:33.960Z,1.33
2023-03-06T07:43:38.033Z,1.30
2023-03-06T07:45:43.892Z,1.45
2023-03-06T07:47:47.870Z,1.52
2023-03-06T07:49:51.761Z,2.15
2023-03-06T07:51:55.260Z,1.63
2023-03-06T07:53:58.821Z,1.42
2023-03-06T07:56:08.754Z,1.48
2023-03-06T07:58:13.227Z,1.55
2023-03-06T08:00:17.764Z,1.30
2023-03-06T08:02:21.590Z,1.73
2023-03-06T08:04:25.785Z,1.50
2023-03-06T08:06:29.723Z,1.88
2023-03-06T08:08:34.625Z,1.70
2023-03-06T08:10:39.019Z,2.05
2023-03-06T08:12:44.314Z,2.10
2023-03-06T08:16:51.506Z,2.05
2023-03-06T08:18:57.611Z,3.17
2023-03-06T08:21:06.782Z,4.28
2023-03-06T08:23:11.010Z,3.75
2023-03-06T08:25:14.915Z,3.58
2023-03-06T08:27:18.615Z,4.03
2023-03-06T08:29:23.816Z,3.13
2023-03-06T08:33:33.500Z,4.18
2023-03-06T08:35:38.634Z,4.13
2023-03-06T08:39:45.604Z,4.80
2023-03-06T08:41:49.299Z,4.85
2023-03-06T08:43:53.961Z,5.18
2023-03-06T08:46:01.741Z,4.38
2023-03-06T08:48:05.322Z,4.93
2023-03-06T08:50:09.349Z,5.15
2023-03-06T08:52:12.927Z,4.53
2023-03-06T08:54:16.782Z,4.00
2023-03-06T08:56:23.134Z,4.18
2023-03-06T08:58:26.723Z,3.75
2023-03-06T09:00:30.325Z,4.78
2023-03-06T09:02:36.279Z,4.72
2023-03-06T09:04:39.963Z,4.03
2023-03-06T09:06:45.461Z,4.32
2023-03-06T09:08:49.099Z,3.53
2023-03-06T09:10:52.740Z,4.22
2023-03-06T09:12:56.494Z,3.17
2023-03-06T09:15:00.353Z,3.45
2023-03-06T09:17:03.894Z,3.38
2023-03-06T09:19:09.057Z,4.75
2023-03-06T09:23:18.382Z,4.10
2023-03-06T09:25:23.482Z,4.05
2023-03-06T09:27:28.432Z,3.72
2023-03-06T09:29:31.771Z,3.17
2023-03-06T09:31:35.545Z,2.78
2023-03-06T09:33:39.146Z,3.78
2023-03-06T09:35:49.816Z,4.05
2023-03-06T09:37:53.401Z,2.95
2023-03-06T09:39:57.877Z,2.75
2023-03-06T09:42:01.400Z,3.33
2023-03-06T09:44:08.927Z,2.67
2023-03-06T09:46:22.296Z,2.10
2023-03-06T09:48:37.652Z,1.92
2023-03-06T09:50:47.381Z,1.70
2023-03-06T09:53:04.708Z,1.88
2023-03-06T09:57:24.162Z,1.48
2023-03-06T09:59:28.972Z,1.45
2023-03-06T10:01:36.830Z,3.28
2023-03-06T10:03:49.539Z,1.80
2023-03-06T10:06:02.412Z,1.90
2023-03-06T10:08:17.660Z,3.40
2023-03-06T10:10:24.174Z,2.00
2023-03-06T10:12:29.603Z,2.25
2023-03-06T10:14:39.197Z,1.90
2023-03-06T10:16:42.901Z,2.33
2023-03-06T10:18:47.252Z,1.83
2023-03-06T10:21:10.320Z,2.00
2023-03-06T10:23:44.011Z,2.80
2023-03-06T10:25:55.920Z,1.80
2023-03-06T10:28:04.703Z,1.85
2023-03-06T10:30:23.019Z,1.92
2023-03-06T10:32:39.525Z,1.70
2023-03-06T10:34:51.367Z,2.65
2023-03-06T10:39:01.181Z,2.58
2023-03-06T10:41:09.526Z,2.30
2023-03-06T10:43:15.470Z,1.92
2023-03-06T10:45:19.500Z,2.38
2023-03-06T10:47:30.430Z,2.03
2023-03-06T10:49:35.887Z,2.08
2023-03-06T10:51:39.431Z,2.35
2023-03-06T10:53:53.314Z,2.65
2023-03-06T10:55:58.665Z,2.65
2023-03-06T10:58:20.756Z,2.58
2023-03-06T11:00:33.116Z,2.30
2023-03-06T11:02:38.738Z,3.05
2023-03-06T11:04:47.307Z,3.22
2023-03-06T11:07:06.498Z,3.15
2023-03-06T11:09:23.194Z,2.65
2023-03-06T11:11:37.079Z,3.15
2023-03-06T11:13:43.526Z,3.60
2023-03-06T11:15:58.664Z,3.42
2023-03-06T11:18:04.654Z,2.95
2023-03-06T11:20:19.468Z,2.63
2023-03-06T11:22:24.236Z,3.60
2023-03-06T11:24:39.067Z,2.97
2023-03-06T11:26:48.419Z,3.25
2023-03-06T11:29:02.835Z,3.63
2023-03-06T11:31:11.933Z,3.00
2023-03-06T11:33:27.009Z,3.15
2023-03-06T11:35:35.986Z,2.90
2023-03-06T11:37:47.324Z,2.90
2023-03-06T11:40:02.140Z,2.78
2023-03-06T11:42:12.410Z,2.60
2023-03-06T11:44:24.779Z,2.83
2023-03-06T11:46:34.439Z,2.80
2023-03-06T11:48:44.194Z,3.42
2023-03-06T11:50:50.372Z,2.58
2023-03-06T11:52:56.776Z,3.33
2023-03-06T11:55:01.804Z,3.42
2023-03-06T11:57:14.032Z,2.40
2023-03-06T11:59:38.526Z,2.70
2023-03-06T12:01:50.756Z,2.20
2023-03-06T12:04:19.246Z,2.38
2023-03-06T12:06:35.244Z,2.35
2023-03-06T12:08:58.715Z,2.17
2023-03-06T12:11:13.531Z,2.45
2023-03-06T12:13:41.329Z,2.65
2023-03-06T12:16:00.515Z,2.35
2023-03-06T12:18:23.755Z,2.08
2023-03-06T12:20:41.552Z,2.00
2023-03-06T12:23:02.523Z,3.47
2023-03-06T12:25:31.565Z,2.55
2023-03-06T12:27:47.106Z,1.70
2023-03-06T12:30:16.735Z,2.60
2023-03-06T12:32:32.117Z,1.80
2023-03-06T12:34:48.779Z,1.90
2023-03-06T12:37:07.979Z,1.77
2023-03-06T12:39:19.218Z,1.55
2023-03-06T12:44:06.984Z,1.95
2023-03-06T12:46:16.449Z,1.70
2023-03-06T12:48:24.071Z,1.75
2023-03-06T12:50:29.351Z,1.85
2023-03-06T12:52:35.236Z,1.98
2023-03-06T12:54:42.034Z,2.42
2023-03-06T12:56:45.851Z,2.70
2023-03-06T12:58:51.632Z,2.13
2023-03-06T13:01:05.109Z,1.95
2023-03-06T13:03:19.777Z,1.58
2023-03-06T13:05:52.095Z,1.90
2023-03-06T13:08:11.662Z,1.35
2023-03-06T13:10:24.538Z,1.42
2023-03-06T13:12:44.343Z,1.15
2023-03-06T13:14:59.939Z,1.25
2023-03-06T13:17:29.736Z,1.35
2023-03-06T13:19:33.395Z,1.42
2023-03-06T13:22:00.557Z,1.58
2023-03-06T13:24:15.647Z,3.05
2023-03-06T13:26:55.852Z,3.15
2023-03-06T13:28:59.882Z,2.55
2023-03-06T13:31:03.501Z,2.63
2023-03-06T13:33:40.222Z,3.50
2023-03-06T13:36:01.289Z,3.45
2023-03-06T13:38:05.768Z,1.15
2023-03-06T13:40:16.742Z,0.82
2023-03-06T13:44:43.460Z,0.88
2023-03-06T13:46:58.974Z,1.05
2023-03-06T13:49:14.835Z,1.33
2023-03-06T13:51:28.354Z,1.15
2023-03-06T13:54:08.472Z,1.25
2023-03-06T13:56:28.541Z,1.05
2023-03-06T13:58:59.372Z,1.27
2023-03-06T14:01:37.398Z,1.00
2023-03-06T14:04:10.480Z,1.38
2023-03-06T14:06:47.333Z,1.02
2023-03-06T14:08:52.681Z,1.02
2023-03-06T14:11:03.700Z,0.88
2023-03-06T14:13:15.870Z,1.40
2023-03-06T14:15:23.673Z,0.90
2023-03-06T14:17:30.874Z,0.90
2023-03-06T14:19:39.729Z,1.42
2023-03-06T14:21:50.921Z,1.10
2023-03-06T14:24:03.875Z,1.08
2023-03-06T14:26:15.456Z,1.00
2023-03-06T14:28:26.564Z,1.10
2023-03-06T14:30:30.211Z,1.08
2023-03-06T14:32:34.300Z,0.98
2023-03-06T14:34:41.597Z,0.93
2023-03-06T14:36:47.250Z,0.60
2023-03-06T14:38:54.130Z,1.10
2023-03-06T14:40:59.745Z,0.88
2023-03-06T14:43:14.526Z,1.10
2023-03-06T14:45:20.969Z,1.20
2023-03-06T14:47:28.702Z,1.33
2023-03-06T14:49:32.352Z,0.98
2023-03-06T14:51:43.072Z,1.52
2023-03-06T14:53:49.571Z,1.00
2023-03-06T14:55:58.302Z,1.02
2023-03-06T14:58:07.517Z,0.85
2023-03-06T15:00:20.093Z,1.33
2023-03-06T15:02:28.428Z,0.93
2023-03-06T15:04:37.453Z,1.10
2023-03-06T15:06:43.508Z,1.23
2023-03-06T15:08:51.826Z,1.15
2023-03-06T15:11:00.681Z,1.10
2023-03-06T15:13:20.345Z,1.10
2023-03-06T15:15:31.263Z,0.98
2023-03-06T15:17:42.238Z,1.05
2023-03-06T15:19:46.993Z,1.40
2023-03-06T15:21:52.558Z,1.42
2023-03-06T15:23:58.352Z,1.60
2023-03-06T15:26:04.936Z,1.40
2023-03-06T15:28:27.424Z,1.70
2023-03-06T15:30:32.803Z,1.33
2023-03-06T15:32:42.659Z,1.98
2023-03-06T15:34:46.806Z,1.60
2023-03-06T15:36:54.377Z,2.20
2023-03-06T15:38:58.760Z,2.67
2023-03-06T15:41:03.741Z,2.30
2023-03-06T15:43:12.278Z,2.15
2023-03-06T15:45:20.370Z,1.85
2023-03-06T15:47:25.294Z,2.25
2023-03-06T15:49:29.218Z,1.90
2023-03-06T15:51:33.677Z,2.00
2023-03-06T15:53:37.947Z,2.05
2023-03-06T15:55:41.588Z,2.05
2023-03-06T15:57:51.257Z,2.15
2023-03-06T15:59:56.452Z,2.15
2023-03-06T16:02:03.925Z,2.50
2023-03-06T16:04:07.739Z,2.25
2023-03-06T16:06:19.308Z,1.98
2023-03-06T16:08:23.569Z,2.75
2023-03-06T16:10:29.957Z,1.65
2023-03-06T16:12:34.594Z,1.70
2023-03-06T16:14:38.678Z,1.38
2023-03-06T16:16:43.738Z,1.85
2023-03-06T16:20:52.702Z,1.73
2023-03-06T16:22:57.380Z,2.63
2023-03-06T16:25:02.602Z,2.05
2023-03-06T16:29:17.227Z,2.30
2023-03-06T16:31:20.993Z,2.60
2023-03-06T16:33:24.721Z,1.63
2023-03-06T16:35:30.696Z,3.75
2023-03-06T16:37:34.540Z,1.95
2023-03-06T16:39:38.206Z,2.17
2023-03-06T16:41:41.998Z,1.83
2023-03-06T16:43:46.250Z,1.52
2023-03-06T16:45:50.162Z,1.30
2023-03-06T16:47:54.574Z,1.55
2023-03-06T16:50:02.076Z,2.17
2023-03-06T16:52:08.898Z,2.13
2023-03-06T16:54:12.492Z,2.75
2023-03-06T16:56:17.656Z,2.90
2023-03-06T17:00:29.571Z,3.05
2023-03-06T17:02:34.128Z,3.17
2023-03-06T17:04:38.122Z,3.55
2023-03-06T17:06:43.329Z,4.28
2023-03-06T17:08:50.024Z,2.53
2023-03-06T17:10:53.863Z,2.00
2023-03-06T17:12:57.666Z,2.25
2023-03-06T17:15:01.880Z,2.40
2023-03-06T17:17:06.046Z,1.80
2023-03-06T17:19:10.528Z,2.20
2023-03-06T17:21:16.261Z,1.80
2023-03-06T17:23:20.495Z,1.63
2023-03-06T17:25:25.743Z,1.50
2023-03-06T17:27:29.844Z,1.85
2023-03-06T17:29:33.397Z,2.45
2023-03-06T17:31:37.485Z,2.03
2023-03-06T17:33:41.566Z,3.05
2023-03-06T17:35:45.673Z,2.65
2023-03-06T17:37:50.166Z,3.10
2023-03-06T17:39:54.348Z,2.95
2023-03-06T17:42:00.702Z,5.05
2023-03-06T17:44:04.934Z,5.80
2023-03-06T17:46:12.180Z,5.07
2023-03-06T17:48:16.174Z,9.30
2023-03-06T17:50:23.735Z,6.95
2023-03-06T17:52:31.760Z,4.38
2023-03-06T17:54:38.529Z,3.85
2023-03-06T17:56:42.179Z,4.68
2023-03-06T17:58:48.348Z,4.38
2023-03-06T18:00:53.195Z,4.00
2023-03-06T18:02:58.018Z,3.58
2023-03-06T18:05:02.736Z,3.78
2023-03-06T18:07:07.321Z,3.78
2023-03-06T18:09:11.120Z,3.20
2023-03-06T18:11:17.250Z,21.52
2023-03-06T18:13:24.223Z,4.72
2023-03-06T18:15:33.420Z,4.85
2023-03-06T18:17:39.382Z,7.03
2023-03-06T18:19:43.785Z,3.70
2023-03-06T18:21:49.115Z,5.15
2023-03-06T18:23:54.797Z,6.10
2023-03-06T18:26:12.047Z,4.22
2023-03-06T18:28:17.454Z,5.53
2023-03-06T18:30:21.310Z,4.35
2023-03-06T18:32:26.584Z,3.50
2023-03-06T18:34:31.337Z,4.80
2023-03-06T18:36:38.618Z,4.22
2023-03-06T18:38:45.408Z,4.93
2023-03-06T18:40:50.386Z,5.10
2023-03-06T18:42:56.778Z,4.43
2023-03-06T18:45:00.801Z,4.85
2023-03-06T18:47:05.709Z,4.78
2023-03-06T18:49:12.960Z,4.57
2023-03-06T18:51:17.586Z,4.47
2023-03-06T18:53:22.282Z,4.63
2023-03-06T18:55:26.692Z,4.63
2023-03-06T18:57:30.796Z,7.90
2023-03-06T18:59:34.808Z,6.80
2023-03-06T19:01:38.780Z,3.28
2023-03-06T19:03:43.083Z,3.15
2023-03-06T19:05:51.055Z,4.35
2023-03-06T19:07:56.660Z,4.70
2023-03-06T19:10:05.818Z,5.15
2023-03-06T19:12:12.590Z,4.68
2023-03-06T19:14:24.346Z,6.53
2023-03-06T19:16:31.978Z,5.00
2023-03-06T19:18:38.400Z,5.18
2023-03-06T19:20:44.031Z,5.28
2023-03-06T19:22:53.711Z,4.00
2023-03-06T19:24:57.963Z,4.28
2023-03-06T19:27:02.812Z,3.80
2023-03-06T19:29:07.527Z,3.65
2023-03-06T19:31:15.942Z,3.17
2023-03-06T19:33:20.468Z,3.90
2023-03-06T19:35:30.039Z,4.13
2023-03-06T19:37:37.382Z,3.63
2023-03-06T19:39:45.475Z,3.50
2023-03-06T19:41:49.996Z,3.90
2023-03-06T19:43:57.264Z,3.65
2023-03-06T19:46:02.656Z,3.15
2023-03-06T19:48:11.872Z,3.45
2023-03-06T19:50:15.949Z,3.38
2023-03-06T19:52:25.741Z,3.95
2023-03-06T19:54:32.480Z,5.20
2023-03-06T19:56:38.984Z,4.15
2023-03-06T19:58:43.378Z,3.72
2023-03-06T20:00:47.557Z,3.55
2023-03-06T20:03:55.364Z,3.50
2023-03-06T20:06:23.480Z,3.15
2023-03-06T20:08:28.463Z,3.40
2023-03-06T20:10:37.945Z,3.72
2023-03-06T20:12:50.255Z,3.08
2023-03-06T20:14:57.131Z,3.22
2023-03-06T20:17:02.918Z,2.63
2023-03-06T20:19:09.585Z,4.53
2023-03-06T20:21:18.719Z,3.95
2023-03-06T20:23:26.029Z,4.80
2023-03-06T20:25:30.993Z,4.28
2023-03-06T20:27:35.863Z,3.33
2023-03-06T20:29:44.883Z,3.03
2023-03-06T20:31:48.661Z,3.72
2023-03-06T20:33:54.554Z,3.35
2023-03-06T20:36:02.467Z,4.65
2023-03-06T20:38:07.145Z,4.45
2023-03-06T20:40:13.600Z,4.35
2023-03-06T20:42:19.149Z,4.57
2023-03-06T20:44:25.196Z,3.83
2023-03-06T20:46:30.613Z,4.43
2023-03-06T20:48:35.336Z,3.90
2023-03-06T20:50:39.452Z,3.70
2023-03-06T20:52:44.502Z,3.58
2023-03-06T20:54:48.766Z,2.92
2023-03-06T20:56:58.193Z,1.88
2023-03-06T20:59:04.748Z,1.73
2023-03-06T21:01:09.153Z,1.90
2023-03-06T21:03:15.289Z,2.30
2023-03-06T21:05:19.192Z,2.53
2023-03-06T21:07:23.580Z,2.40
2023-03-06T21:09:28.453Z,2.08
2023-03-06T21:11:32.443Z,2.03
2023-03-06T21:13:39.146Z,1.67
2023-03-06T21:15:49.103Z,2.15
2023-03-06T21:17:54.658Z,2.15
2023-03-06T21:20:00.873Z,2.90
2023-03-06T21:22:06.342Z,1.95
2023-03-06T21:24:12.313Z,2.45
2023-03-06T21:26:18.829Z,2.45
2023-03-06T21:28:23.846Z,2.67
2023-03-06T21:30:27.877Z,3.80
2023-03-06T21:32:31.741Z,2.90
2023-03-06T21:34:35.636Z,3.17
2023-03-06T21:36:43.128Z,4.15
2023-03-06T21:38:47.145Z,4.10
2023-03-06T21:40:51.120Z,4.68
2023-03-06T21:42:57.505Z,4.47
2023-03-06T21:45:08.577Z,4.35
2023-03-06T21:47:17.606Z,4.63
2023-03-06T21:49:30.054Z,4.65
2023-03-06T21:51:36.379Z,5.53
2023-03-06T21:53:49.438Z,5.22
2023-03-06T21:55:56.223Z,4.47
2023-03-06T21:58:02.573Z,4.95
2023-03-06T22:00:20.285Z,5.15
2023-03-06T22:02:27.085Z,4.50
2023-03-06T22:04:31.515Z,4.20
2023-03-06T22:06:36.618Z,3.70
2023-03-06T22:08:40.929Z,4.35
2023-03-06T22:10:48.460Z,3.40
2023-03-06T22:12:55.070Z,2.67
2023-03-06T22:14:59.345Z,2.97
2023-03-06T22:17:03.402Z,2.83
2023-03-06T22:19:07.833Z,2.83
2023-03-06T22:21:17.346Z,3.03
2023-03-06T22:23:24.029Z,3.10
2023-03-06T22:25:28.372Z,2.35
2023-03-06T22:27:35.279Z,2.00
2023-03-06T22:29:39.970Z,2.13
2023-03-06T22:35:54.864Z,2.70
2023-03-06T22:38:02.980Z,2.47
2023-03-06T22:40:08.458Z,2.78
2023-03-06T22:42:12.772Z,2.53
2023-03-06T22:44:20.824Z,3.33
2023-03-06T22:46:25.813Z,2.67
2023-03-06T22:48:30.331Z,2.70
2023-03-06T22:50:35.902Z,2.88
2023-03-06T22:52:42.520Z,2.38
2023-03-06T22:54:46.711Z,2.50
2023-03-06T22:56:50.708Z,2.80
2023-03-06T22:58:54.944Z,2.50
2023-03-06T23:01:05.812Z,4.15
2023-03-06T23:03:09.637Z,2.70
2023-03-06T23:05:13.349Z,3.22
2023-03-06T23:07:17.565Z,1.75
2023-03-06T23:09:23.415Z,3.10
2023-03-06T23:16:32.575Z,2.30
2023-03-06T23:18:55.052Z,1.95
2023-03-06T23:21:19.473Z,2.25
2023-03-06T23:23:51.096Z,1.88
2023-03-06T23:26:04.485Z,2.50
2023-03-06T23:28:09.884Z,2.25
2023-03-06T23:30:17.240Z,2.28
2023-03-06T23:32:23.130Z,3.30
2023-03-06T23:34:27.282Z,1.85
2023-03-06T23:36:33.057Z,1.73
2023-03-06T23:38:37.740Z,1.70
2023-03-06T23:40:41.987Z,2.28
2023-03-06T23:42:45.861Z,1.77
2023-03-06T23:44:50.218Z,2.25
2023-03-06T23:46:54.625Z,2.40
2023-03-06T23:49:00.395Z,2.03
2023-03-06T23:51:07.918Z,1.90
2023-03-06T23:53:11.754Z,1.98
2023-03-06T23:55:16.460Z,1.65
2023-03-06T23:57:20.321Z,1.70
2023-03-06T23:59:25.269Z,1.83
